sensor_id;sensor_type;location;lat;lon;timestamp;P1;durP1;ratioP1;P2;durP2;ratioP2
8247;SDS011;4164;49.844;8.830;2023-06-14T00:01:51;9.67;;;4.60;;
8247;SDS011;4164;49.844;8.830;2023-06-14T00:04:17;5.53;;;4.43;;
8247;SDS011;4164;49.844;8.830;2023-06-14T00:06:43;6.50;;;4.00;;
8247;SDS011;4164;49.844;8.830;2023-06-14T00:09:10;8.50;;;5.00;;
8247;SDS011;4164;49.844;8.830;2023-06-14T00:11:38;5.40;;;4.43;;
8247;SDS011;4164;49.844;8.830;2023-06-14T00:14:04;10.60;;;4.53;;
8247;SDS011;4164;49.844;8.830;2023-06-14T00:16:30;6.00;;;4.40;;
8247;SDS011;4164;49.844;8.830;2023-06-14T00:18:57;8.87;;;4.73;;
8247;SDS011;4164;49.844;8.830;2023-06-14T00:21:23;5.23;;;4.47;;
8247;SDS011;4164;49.844;8.830;2023-06-14T00:23:48;6.50;;;4.40;;
8247;SDS011;4164;49.844;8.830;2023-06-14T00:26:14;7.07;;;4.30;;
8247;SDS011;4164;49.844;8.830;2023-06-14T00:28:40;6.87;;;4.37;;
8247;SDS011;4164;49.844;8.830;2023-06-14T00:31:06;7.43;;;4.73;;
8247;SDS011;4164;49.844;8.830;2023-06-14T00:33:31;6.27;;;4.63;;
8247;SDS011;4164;49.844;8.830;2023-06-14T00:35:57;8.57;;;4.20;;
8247;SDS011;4164;49.844;8.830;2023-06-14T00:38:22;6.00;;;4.47;;
8247;SDS011;4164;49.844;8.830;2023-06-14T00:40:48;6.37;;;4.40;;
8247;SDS011;4164;49.844;8.830;2023-06-14T00:43:13;6.33;;;4.80;;
8247;SDS011;4164;49.844;8.830;2023-06-14T00:45:39;5.40;;;4.87;;
8247;SDS011;4164;49.844;8.830;2023-06-14T00:48:04;5.33;;;4.30;;
8247;SDS011;4164;49.844;8.830;2023-06-14T00:50:32;5.53;;;4.63;;
8247;SDS011;4164;49.844;8.830;2023-06-14T00:52:58;6.10;;;4.73;;
8247;SDS011;4164;49.844;8.830;2023-06-14T00:55:24;7.43;;;4.70;;
8247;SDS011;4164;49.844;8.830;2023-06-14T00:57:50;5.50;;;4.23;;
8247;SDS011;4164;49.844;8.830;2023-06-14T01:00:16;7.07;;;4.73;;
8247;SDS011;4164;49.844;8.830;2023-06-14T01:02:42;7.30;;;4.57;;
8247;SDS011;4164;49.844;8.830;2023-06-14T01:05:07;6.10;;;4.60;;
8247;SDS011;4164;49.844;8.830;2023-06-14T01:07:43;5.97;;;4.13;;
8247;SDS011;4164;49.844;8.830;2023-06-14T01:10:38;6.77;;;4.60;;
8247;SDS011;4164;49.844;8.830;2023-06-14T01:16:00;5.93;;;4.40;;
8247;SDS011;4164;49.844;8.830;2023-06-14T01:18:30;10.13;;;4.93;;
8247;SDS011;4164;49.844;8.830;2023-06-14T01:20:57;4.80;;;4.03;;
8247;SDS011;4164;49.844;8.830;2023-06-14T01:23:23;5.50;;;4.80;;
8247;SDS011;4164;49.844;8.830;2023-06-14T01:25:49;5.30;;;4.80;;
8247;SDS011;4164;49.844;8.830;2023-06-14T01:28:19;7.97;;;4.93;;
8247;SDS011;4164;49.844;8.830;2023-06-14T01:30:46;5.83;;;5.03;;
8247;SDS011;4164;49.844;8.830;2023-06-14T01:33:15;6.47;;;5.17;;
8247;SDS011;4164;49.844;8.830;2023-06-14T01:35:43;5.67;;;4.87;;
8247;SDS011;4164;49.844;8.830;2023-06-14T01:38:10;7.63;;;4.77;;
8247;SDS011;4164;49.844;8.830;2023-06-14T01:40:38;4.80;;;4.33;;
8247;SDS011;4164;49.844;8.830;2023-06-14T01:43:04;9.97;;;5.50;;
8247;SDS011;4164;49.844;8.830;2023-06-14T01:45:31;5.10;;;4.60;;
8247;SDS011;4164;49.844;8.830;2023-06-14T01:47:58;5.47;;;4.90;;
8247;SDS011;4164;49.844;8.830;2023-06-14T01:50:27;17.00;;;5.13;;
8247;SDS011;4164;49.844;8.830;2023-06-14T01:52:56;6.63;;;5.70;;
8247;SDS011;4164;49.844;8.830;2023-06-14T01:55:22;6.73;;;4.60;;
8247;SDS011;4164;49.844;8.830;2023-06-14T01:57:49;7.10;;;4.80;;
8247;SDS011;4164;49.844;8.830;2023-06-14T02:00:15;6.17;;;4.63;;
8247;SDS011;4164;49.844;8.830;2023-06-14T02:02:43;6.17;;;5.20;;
8247;SDS011;4164;49.844;8.830;2023-06-14T02:05:09;6.73;;;5.17;;
8247;SDS011;4164;49.844;8.830;2023-06-14T02:07:35;6.00;;;5.10;;
8247;SDS011;4164;49.844;8.830;2023-06-14T02:10:01;7.43;;;5.23;;
8247;SDS011;4164;49.844;8.830;2023-06-14T02:12:27;7.87;;;5.03;;
8247;SDS011;4164;49.844;8.830;2023-06-14T02:14:53;6.73;;;4.70;;
8247;SDS011;4164;49.844;8.830;2023-06-14T02:17:19;5.67;;;4.70;;
8247;SDS011;4164;49.844;8.830;2023-06-14T02:19:45;6.97;;;5.27;;
8247;SDS011;4164;49.844;8.830;2023-06-14T02:22:10;9.37;;;5.43;;
8247;SDS011;4164;49.844;8.830;2023-06-14T02:24:36;9.17;;;5.80;;
8247;SDS011;4164;49.844;8.830;2023-06-14T02:27:02;8.67;;;5.67;;
8247;SDS011;4164;49.844;8.830;2023-06-14T02:29:28;6.87;;;5.87;;
8247;SDS011;4164;49.844;8.830;2023-06-14T02:31:54;6.50;;;5.13;;
8247;SDS011;4164;49.844;8.830;2023-06-14T02:34:19;9.07;;;5.57;;
8247;SDS011;4164;49.844;8.830;2023-06-14T02:36:46;10.17;;;5.47;;
8247;SDS011;4164;49.844;8.830;2023-06-14T02:39:12;9.50;;;5.60;;
8247;SDS011;4164;49.844;8.830;2023-06-14T02:41:38;6.80;;;5.50;;
8247;SDS011;4164;49.844;8.830;2023-06-14T02:44:04;7.87;;;5.40;;
8247;SDS011;4164;49.844;8.830;2023-06-14T02:46:31;7.83;;;5.60;;
8247;SDS011;4164;49.844;8.830;2023-06-14T02:48:56;6.13;;;5.50;;
8247;SDS011;4164;49.844;8.830;2023-06-14T02:51:22;6.83;;;5.60;;
8247;SDS011;4164;49.844;8.830;2023-06-14T02:53:48;9.17;;;6.63;;
8247;SDS011;4164;49.844;8.830;2023-06-14T02:56:13;6.57;;;5.87;;
8247;SDS011;4164;49.844;8.830;2023-06-14T02:58:39;8.07;;;6.07;;
8247;SDS011;4164;49.844;8.830;2023-06-14T03:01:05;9.87;;;6.07;;
8247;SDS011;4164;49.844;8.830;2023-06-14T03:03:32;6.77;;;6.00;;
8247;SDS011;4164;49.844;8.830;2023-06-14T03:05:58;9.83;;;6.00;;
8247;SDS011;4164;49.844;8.830;2023-06-14T03:08:29;6.10;;;5.37;;
8247;SDS011;4164;49.844;8.830;2023-06-14T03:11:03;9.43;;;5.50;;
8247;SDS011;4164;49.844;8.830;2023-06-14T03:13:30;8.13;;;5.90;;
8247;SDS011;4164;49.844;8.830;2023-06-14T03:15:57;8.83;;;6.10;;
8247;SDS011;4164;49.844;8.830;2023-06-14T03:18:23;8.70;;;6.33;;
8247;SDS011;4164;49.844;8.830;2023-06-14T03:20:48;7.63;;;6.40;;
8247;SDS011;4164;49.844;8.830;2023-06-14T03:23:15;7.57;;;6.20;;
8247;SDS011;4164;49.844;8.830;2023-06-14T03:25:41;7.57;;;6.10;;
8247;SDS011;4164;49.844;8.830;2023-06-14T03:28:07;13.37;;;6.57;;
8247;SDS011;4164;49.844;8.830;2023-06-14T03:30:33;5.93;;;5.33;;
8247;SDS011;4164;49.844;8.830;2023-06-14T03:32:58;7.70;;;6.50;;
8247;SDS011;4164;49.844;8.830;2023-06-14T03:35:26;5.90;;;5.30;;
8247;SDS011;4164;49.844;8.830;2023-06-14T03:37:52;8.33;;;5.73;;
8247;SDS011;4164;49.844;8.830;2023-06-14T03:40:18;8.17;;;6.13;;
8247;SDS011;4164;49.844;8.830;2023-06-14T03:42:45;9.57;;;5.73;;
8247;SDS011;4164;49.844;8.830;2023-06-14T03:45:10;6.87;;;5.90;;
8247;SDS011;4164;49.844;8.830;2023-06-14T03:47:36;8.43;;;5.70;;
8247;SDS011;4164;49.844;8.830;2023-06-14T03:50:02;13.63;;;6.30;;
8247;SDS011;4164;49.844;8.830;2023-06-14T03:52:28;8.23;;;6.00;;
8247;SDS011;4164;49.844;8.830;2023-06-14T03:54:54;8.70;;;6.37;;
8247;SDS011;4164;49.844;8.830;2023-06-14T03:57:20;7.47;;;5.73;;
8247;SDS011;4164;49.844;8.830;2023-06-14T03:59:46;7.90;;;5.97;;
8247;SDS011;4164;49.844;8.830;2023-06-14T04:02:12;7.30;;;6.20;;
8247;SDS011;4164;49.844;8.830;2023-06-14T04:04:40;8.53;;;6.13;;
8247;SDS011;4164;49.844;8.830;2023-06-14T04:07:09;11.83;;;6.17;;
8247;SDS011;4164;49.844;8.830;2023-06-14T04:09:36;7.27;;;6.20;;
8247;SDS011;4164;49.844;8.830;2023-06-14T04:12:02;8.53;;;5.87;;
8247;SDS011;4164;49.844;8.830;2023-06-14T04:14:28;9.03;;;6.60;;
8247;SDS011;4164;49.844;8.830;2023-06-14T04:16:55;7.80;;;6.20;;
8247;SDS011;4164;49.844;8.830;2023-06-14T04:19:21;9.57;;;5.80;;
8247;SDS011;4164;49.844;8.830;2023-06-14T04:21:47;8.00;;;5.87;;
8247;SDS011;4164;49.844;8.830;2023-06-14T04:24:12;6.40;;;5.70;;
8247;SDS011;4164;49.844;8.830;2023-06-14T04:26:44;8.23;;;6.30;;
8247;SDS011;4164;49.844;8.830;2023-06-14T04:29:12;8.57;;;6.23;;
8247;SDS011;4164;49.844;8.830;2023-06-14T04:31:45;6.70;;;6.03;;
8247;SDS011;4164;49.844;8.830;2023-06-14T04:34:14;7.83;;;6.97;;
8247;SDS011;4164;49.844;8.830;2023-06-14T04:36:42;11.33;;;6.43;;
8247;SDS011;4164;49.844;8.830;2023-06-14T04:39:17;8.27;;;6.10;;
8247;SDS011;4164;49.844;8.830;2023-06-14T04:41:44;8.73;;;6.10;;
8247;SDS011;4164;49.844;8.830;2023-06-14T04:44:10;10.13;;;6.30;;
8247;SDS011;4164;49.844;8.830;2023-06-14T04:46:37;7.60;;;6.57;;
8247;SDS011;4164;49.844;8.830;2023-06-14T04:49:10;7.23;;;6.37;;
8247;SDS011;4164;49.844;8.830;2023-06-14T04:51:40;8.33;;;7.23;;
8247;SDS011;4164;49.844;8.830;2023-06-14T04:54:07;7.57;;;6.50;;
8247;SDS011;4164;49.844;8.830;2023-06-14T04:56:35;8.03;;;6.23;;
8247;SDS011;4164;49.844;8.830;2023-06-14T04:59:02;7.57;;;6.13;;
8247;SDS011;4164;49.844;8.830;2023-06-14T05:01:29;7.60;;;5.83;;
8247;SDS011;4164;49.844;8.830;2023-06-14T05:03:56;7.40;;;5.60;;
8247;SDS011;4164;49.844;8.830;2023-06-14T05:06:22;10.37;;;6.03;;
8247;SDS011;4164;49.844;8.830;2023-06-14T05:08:48;10.80;;;6.70;;
8247;SDS011;4164;49.844;8.830;2023-06-14T05:11:14;10.70;;;5.63;;
8247;SDS011;4164;49.844;8.830;2023-06-14T05:13:41;6.47;;;5.83;;
8247;SDS011;4164;49.844;8.830;2023-06-14T05:16:08;7.17;;;6.03;;
8247;SDS011;4164;49.844;8.830;2023-06-14T05:18:34;6.87;;;5.93;;
8247;SDS011;4164;49.844;8.830;2023-06-14T05:21:00;6.93;;;5.93;;
8247;SDS011;4164;49.844;8.830;2023-06-14T05:23:26;9.77;;;6.03;;
8247;SDS011;4164;49.844;8.830;2023-06-14T05:25:51;10.17;;;6.90;;
8247;SDS011;4164;49.844;8.830;2023-06-14T05:28:18;9.73;;;5.67;;
8247;SDS011;4164;49.844;8.830;2023-06-14T05:30:43;7.67;;;6.10;;
8247;SDS011;4164;49.844;8.830;2023-06-14T05:33:09;6.43;;;5.17;;
8247;SDS011;4164;49.844;8.830;2023-06-14T05:35:34;8.87;;;5.20;;
8247;SDS011;4164;49.844;8.830;2023-06-14T05:38:00;6.80;;;5.87;;
8247;SDS011;4164;49.844;8.830;2023-06-14T05:40:26;8.37;;;5.70;;
8247;SDS011;4164;49.844;8.830;2023-06-14T05:42:51;8.13;;;5.20;;
8247;SDS011;4164;49.844;8.830;2023-06-14T05:45:17;8.77;;;5.17;;
8247;SDS011;4164;49.844;8.830;2023-06-14T05:47:42;8.07;;;5.27;;
8247;SDS011;4164;49.844;8.830;2023-06-14T05:50:08;6.97;;;5.03;;
8247;SDS011;4164;49.844;8.830;2023-06-14T05:52:34;8.03;;;4.97;;
8247;SDS011;4164;49.844;8.830;2023-06-14T05:55:01;8.20;;;4.93;;
8247;SDS011;4164;49.844;8.830;2023-06-14T05:57:31;6.80;;;4.90;;
8247;SDS011;4164;49.844;8.830;2023-06-14T05:59:56;8.17;;;4.83;;
8247;SDS011;4164;49.844;8.830;2023-06-14T06:02:22;10.33;;;4.70;;
8247;SDS011;4164;49.844;8.830;2023-06-14T06:04:47;8.07;;;4.50;;
8247;SDS011;4164;49.844;8.830;2023-06-14T06:07:13;7.80;;;4.60;;
8247;SDS011;4164;49.844;8.830;2023-06-14T06:09:38;5.07;;;4.53;;
8247;SDS011;4164;49.844;8.830;2023-06-14T06:12:06;8.83;;;4.70;;
8247;SDS011;4164;49.844;8.830;2023-06-14T06:14:32;5.90;;;5.00;;
8247;SDS011;4164;49.844;8.830;2023-06-14T06:16:57;7.60;;;5.47;;
8247;SDS011;4164;49.844;8.830;2023-06-14T06:19:23;5.83;;;4.90;;
8247;SDS011;4164;49.844;8.830;2023-06-14T06:21:49;7.47;;;4.63;;
8247;SDS011;4164;49.844;8.830;2023-06-14T06:24:15;7.43;;;4.50;;
8247;SDS011;4164;49.844;8.830;2023-06-14T06:26:41;6.80;;;4.53;;
8247;SDS011;4164;49.844;8.830;2023-06-14T06:29:06;7.40;;;4.67;;
8247;SDS011;4164;49.844;8.830;2023-06-14T06:31:32;7.77;;;4.40;;
8247;SDS011;4164;49.844;8.830;2023-06-14T06:33:58;12.90;;;4.33;;
8247;SDS011;4164;49.844;8.830;2023-06-14T06:36:23;5.77;;;4.23;;
8247;SDS011;4164;49.844;8.830;2023-06-14T06:38:49;10.97;;;4.47;;
8247;SDS011;4164;49.844;8.830;2023-06-14T06:41:15;6.90;;;4.87;;
8247;SDS011;4164;49.844;8.830;2023-06-14T06:43:41;8.43;;;4.67;;
8247;SDS011;4164;49.844;8.830;2023-06-14T06:46:06;10.03;;;4.40;;
8247;SDS011;4164;49.844;8.830;2023-06-14T06:48:32;8.00;;;4.40;;
8247;SDS011;4164;49.844;8.830;2023-06-14T06:50:58;6.53;;;4.20;;
8247;SDS011;4164;49.844;8.830;2023-06-14T06:53:23;5.80;;;3.87;;
8247;SDS011;4164;49.844;8.830;2023-06-14T06:55:48;7.67;;;4.03;;
8247;SDS011;4164;49.844;8.830;2023-06-14T06:58:14;7.83;;;4.63;;
8247;SDS011;4164;49.844;8.830;2023-06-14T07:00:40;5.77;;;4.17;;
8247;SDS011;4164;49.844;8.830;2023-06-14T07:03:06;5.50;;;3.70;;
8247;SDS011;4164;49.844;8.830;2023-06-14T07:05:31;6.27;;;3.60;;
8247;SDS011;4164;49.844;8.830;2023-06-14T07:07:57;7.40;;;4.17;;
8247;SDS011;4164;49.844;8.830;2023-06-14T07:10:22;6.83;;;3.70;;
8247;SDS011;4164;49.844;8.830;2023-06-14T07:12:49;5.20;;;3.87;;
8247;SDS011;4164;49.844;8.830;2023-06-14T07:15:15;6.10;;;3.90;;
8247;SDS011;4164;49.844;8.830;2023-06-14T07:17:41;7.30;;;3.80;;
8247;SDS011;4164;49.844;8.830;2023-06-14T07:20:07;5.67;;;3.80;;
8247;SDS011;4164;49.844;8.830;2023-06-14T07:22:36;9.33;;;3.80;;
8247;SDS011;4164;49.844;8.830;2023-06-14T07:25:03;6.80;;;3.40;;
8247;SDS011;4164;49.844;8.830;2023-06-14T07:27:28;5.47;;;3.63;;
8247;SDS011;4164;49.844;8.830;2023-06-14T07:29:54;9.60;;;3.80;;
8247;SDS011;4164;49.844;8.830;2023-06-14T07:32:19;4.87;;;3.47;;
8247;SDS011;4164;49.844;8.830;2023-06-14T07:34:45;5.23;;;3.73;;
8247;SDS011;4164;49.844;8.830;2023-06-14T07:37:10;4.40;;;3.90;;
8247;SDS011;4164;49.844;8.830;2023-06-14T07:39:36;8.13;;;3.93;;
8247;SDS011;4164;49.844;8.830;2023-06-14T07:42:01;4.53;;;3.97;;
8247;SDS011;4164;49.844;8.830;2023-06-14T07:44:29;7.90;;;4.10;;
8247;SDS011;4164;49.844;8.830;2023-06-14T07:46:56;5.00;;;3.50;;
8247;SDS011;4164;49.844;8.830;2023-06-14T07:49:24;6.03;;;3.60;;
8247;SDS011;4164;49.844;8.830;2023-06-14T07:51:50;5.93;;;3.87;;
8247;SDS011;4164;49.844;8.830;2023-06-14T07:54:16;7.53;;;3.67;;
8247;SDS011;4164;49.844;8.830;2023-06-14T07:56:49;5.03;;;3.20;;
8247;SDS011;4164;49.844;8.830;2023-06-14T07:59:15;4.00;;;3.60;;
8247;SDS011;4164;49.844;8.830;2023-06-14T08:01:41;4.00;;;3.70;;
8247;SDS011;4164;49.844;8.830;2023-06-14T08:04:11;5.10;;;3.40;;
8247;SDS011;4164;49.844;8.830;2023-06-14T08:06:37;4.10;;;3.17;;
8247;SDS011;4164;49.844;8.830;2023-06-14T08:09:03;4.53;;;3.60;;
8247;SDS011;4164;49.844;8.830;2023-06-14T08:11:30;5.07;;;3.60;;
8247;SDS011;4164;49.844;8.830;2023-06-14T08:13:56;7.43;;;3.53;;
8247;SDS011;4164;49.844;8.830;2023-06-14T08:16:21;7.37;;;3.57;;
8247;SDS011;4164;49.844;8.830;2023-06-14T08:18:47;6.33;;;3.07;;
8247;SDS011;4164;49.844;8.830;2023-06-14T08:21:13;7.03;;;3.57;;
8247;SDS011;4164;49.844;8.830;2023-06-14T08:23:39;3.40;;;2.90;;
8247;SDS011;4164;49.844;8.830;2023-06-14T08:26:06;3.63;;;2.77;;
8247;SDS011;4164;49.844;8.830;2023-06-14T08:28:32;8.30;;;3.20;;
8247;SDS011;4164;49.844;8.830;2023-06-14T08:30:57;7.03;;;3.03;;
8247;SDS011;4164;49.844;8.830;2023-06-14T08:33:23;3.40;;;2.87;;
8247;SDS011;4164;49.844;8.830;2023-06-14T08:35:48;2.70;;;2.50;;
8247;SDS011;4164;49.844;8.830;2023-06-14T08:38:14;3.23;;;2.93;;
8247;SDS011;4164;49.844;8.830;2023-06-14T08:40:41;7.53;;;3.07;;
8247;SDS011;4164;49.844;8.830;2023-06-14T08:43:07;4.23;;;3.20;;
8247;SDS011;4164;49.844;8.830;2023-06-14T08:45:32;5.83;;;2.90;;
8247;SDS011;4164;49.844;8.830;2023-06-14T08:47:58;7.57;;;2.87;;
8247;SDS011;4164;49.844;8.830;2023-06-14T08:50:25;4.47;;;2.80;;
8247;SDS011;4164;49.844;8.830;2023-06-14T08:52:54;5.33;;;3.03;;
8247;SDS011;4164;49.844;8.830;2023-06-14T08:55:22;4.13;;;2.53;;
8247;SDS011;4164;49.844;8.830;2023-06-14T08:57:53;5.17;;;2.80;;
8247;SDS011;4164;49.844;8.830;2023-06-14T09:00:20;5.23;;;2.53;;
8247;SDS011;4164;49.844;8.830;2023-06-14T09:02:46;2.90;;;2.53;;
8247;SDS011;4164;49.844;8.830;2023-06-14T09:05:12;3.60;;;2.60;;
8247;SDS011;4164;49.844;8.830;2023-06-14T09:07:38;3.60;;;2.20;;
8247;SDS011;4164;49.844;8.830;2023-06-14T09:10:07;2.67;;;2.47;;
8247;SDS011;4164;49.844;8.830;2023-06-14T09:12:34;4.87;;;2.27;;
8247;SDS011;4164;49.844;8.830;2023-06-14T09:14:59;4.00;;;2.10;;
8247;SDS011;4164;49.844;8.830;2023-06-14T09:17:25;6.77;;;4.77;;
8247;SDS011;4164;49.844;8.830;2023-06-14T09:19:51;3.50;;;2.20;;
8247;SDS011;4164;49.844;8.830;2023-06-14T09:22:16;3.43;;;2.57;;
8247;SDS011;4164;49.844;8.830;2023-06-14T09:24:42;3.17;;;2.20;;
8247;SDS011;4164;49.844;8.830;2023-06-14T09:27:07;2.93;;;2.03;;
8247;SDS011;4164;49.844;8.830;2023-06-14T09:29:33;4.57;;;2.80;;
8247;SDS011;4164;49.844;8.830;2023-06-14T09:31:58;8.40;;;2.60;;
8247;SDS011;4164;49.844;8.830;2023-06-14T09:34:24;3.07;;;2.40;;
8247;SDS011;4164;49.844;8.830;2023-06-14T09:36:50;9.97;;;2.70;;
8247;SDS011;4164;49.844;8.830;2023-06-14T09:39:16;3.37;;;2.67;;
8247;SDS011;4164;49.844;8.830;2023-06-14T09:41:43;5.30;;;3.03;;
8247;SDS011;4164;49.844;8.830;2023-06-14T09:44:09;4.47;;;2.60;;
8247;SDS011;4164;49.844;8.830;2023-06-14T09:46:37;6.30;;;2.70;;
8247;SDS011;4164;49.844;8.830;2023-06-14T09:49:03;4.17;;;2.73;;
8247;SDS011;4164;49.844;8.830;2023-06-14T09:51:29;2.80;;;2.60;;
8247;SDS011;4164;49.844;8.830;2023-06-14T09:53:58;3.80;;;2.70;;
8247;SDS011;4164;49.844;8.830;2023-06-14T09:56:29;5.67;;;2.33;;
8247;SDS011;4164;49.844;8.830;2023-06-14T09:59:10;5.03;;;2.03;;
8247;SDS011;4164;49.844;8.830;2023-06-14T10:01:40;2.70;;;2.30;;
8247;SDS011;4164;49.844;8.830;2023-06-14T10:04:07;2.30;;;2.03;;
8247;SDS011;4164;49.844;8.830;2023-06-14T10:06:36;2.73;;;2.20;;
8247;SDS011;4164;49.844;8.830;2023-06-14T10:09:03;3.10;;;2.27;;
8247;SDS011;4164;49.844;8.830;2023-06-14T10:11:30;3.87;;;2.43;;
8247;SDS011;4164;49.844;8.830;2023-06-14T10:13:56;6.17;;;2.60;;
8247;SDS011;4164;49.844;8.830;2023-06-14T10:16:31;3.33;;;2.20;;
8247;SDS011;4164;49.844;8.830;2023-06-14T10:19:19;13.33;;;2.53;;
8247;SDS011;4164;49.844;8.830;2023-06-14T10:21:51;5.87;;;2.47;;
8247;SDS011;4164;49.844;8.830;2023-06-14T10:24:30;5.73;;;2.90;;
8247;SDS011;4164;49.844;8.830;2023-06-14T10:27:07;2.47;;;2.27;;
8247;SDS011;4164;49.844;8.830;2023-06-14T10:32:21;3.27;;;2.57;;
8247;SDS011;4164;49.844;8.830;2023-06-14T10:34:59;3.33;;;2.40;;
8247;SDS011;4164;49.844;8.830;2023-06-14T10:37:26;3.53;;;2.83;;
8247;SDS011;4164;49.844;8.830;2023-06-14T10:39:52;3.00;;;2.70;;
8247;SDS011;4164;49.844;8.830;2023-06-14T10:42:19;3.57;;;2.60;;
8247;SDS011;4164;49.844;8.830;2023-06-14T10:44:51;4.87;;;2.77;;
8247;SDS011;4164;49.844;8.830;2023-06-14T10:47:21;4.03;;;2.80;;
8247;SDS011;4164;49.844;8.830;2023-06-14T10:49:54;6.33;;;2.77;;
8247;SDS011;4164;49.844;8.830;2023-06-14T10:52:21;5.47;;;2.90;;
8247;SDS011;4164;49.844;8.830;2023-06-14T10:57:53;4.03;;;2.80;;
8247;SDS011;4164;49.844;8.830;2023-06-14T11:00:22;2.83;;;2.53;;
8247;SDS011;4164;49.844;8.830;2023-06-14T11:05:49;4.50;;;2.97;;
8247;SDS011;4164;49.844;8.830;2023-06-14T11:08:25;3.83;;;2.80;;
8247;SDS011;4164;49.844;8.830;2023-06-14T11:10:53;3.17;;;2.87;;
8247;SDS011;4164;49.844;8.830;2023-06-14T11:13:24;3.60;;;3.07;;
8247;SDS011;4164;49.844;8.830;2023-06-14T11:15:50;3.20;;;2.90;;
8247;SDS011;4164;49.844;8.830;2023-06-14T11:18:18;3.90;;;2.60;;
8247;SDS011;4164;49.844;8.830;2023-06-14T11:20:45;3.27;;;2.90;;
8247;SDS011;4164;49.844;8.830;2023-06-14T11:23:11;4.43;;;3.00;;
8247;SDS011;4164;49.844;8.830;2023-06-14T11:25:37;6.00;;;2.70;;
8247;SDS011;4164;49.844;8.830;2023-06-14T11:28:02;7.27;;;3.10;;
8247;SDS011;4164;49.844;8.830;2023-06-14T11:30:28;4.30;;;2.80;;
8247;SDS011;4164;49.844;8.830;2023-06-14T11:32:54;3.10;;;2.90;;
8247;SDS011;4164;49.844;8.830;2023-06-14T11:35:23;3.93;;;2.53;;
8247;SDS011;4164;49.844;8.830;2023-06-14T11:37:53;3.37;;;3.07;;
8247;SDS011;4164;49.844;8.830;2023-06-14T11:40:22;4.67;;;2.93;;
8247;SDS011;4164;49.844;8.830;2023-06-14T11:42:49;3.23;;;2.60;;
8247;SDS011;4164;49.844;8.830;2023-06-14T11:45:15;6.00;;;3.10;;
8247;SDS011;4164;49.844;8.830;2023-06-14T11:47:40;6.40;;;2.97;;
8247;SDS011;4164;49.844;8.830;2023-06-14T11:50:07;5.07;;;3.13;;
8247;SDS011;4164;49.844;8.830;2023-06-14T11:52:36;3.83;;;2.90;;
8247;SDS011;4164;49.844;8.830;2023-06-14T11:55:02;4.17;;;2.60;;
8247;SDS011;4164;49.844;8.830;2023-06-14T11:57:30;3.37;;;2.80;;
8247;SDS011;4164;49.844;8.830;2023-06-14T11:59:58;3.47;;;3.00;;
8247;SDS011;4164;49.844;8.830;2023-06-14T12:02:24;3.73;;;2.73;;
8247;SDS011;4164;49.844;8.830;2023-06-14T12:04:52;4.20;;;2.60;;
8247;SDS011;4164;49.844;8.830;2023-06-14T12:07:19;4.67;;;2.83;;
8247;SDS011;4164;49.844;8.830;2023-06-14T12:12:18;4.97;;;2.67;;
8247;SDS011;4164;49.844;8.830;2023-06-14T12:14:46;4.87;;;2.97;;
8247;SDS011;4164;49.844;8.830;2023-06-14T12:17:12;5.13;;;2.73;;
8247;SDS011;4164;49.844;8.830;2023-06-14T12:19:44;2.90;;;2.67;;
8247;SDS011;4164;49.844;8.830;2023-06-14T12:22:14;2.83;;;2.53;;
8247;SDS011;4164;49.844;8.830;2023-06-14T12:24:43;3.17;;;2.77;;
8247;SDS011;4164;49.844;8.830;2023-06-14T12:27:09;6.13;;;2.60;;
8247;SDS011;4164;49.844;8.830;2023-06-14T12:29:40;4.33;;;2.87;;
8247;SDS011;4164;49.844;8.830;2023-06-14T12:32:09;5.67;;;2.93;;
8247;SDS011;4164;49.844;8.830;2023-06-14T12:34:35;3.13;;;2.80;;
8247;SDS011;4164;49.844;8.830;2023-06-14T12:37:01;5.97;;;3.00;;
8247;SDS011;4164;49.844;8.830;2023-06-14T12:39:29;4.47;;;2.70;;
8247;SDS011;4164;49.844;8.830;2023-06-14T12:41:56;2.60;;;2.40;;
8247;SDS011;4164;49.844;8.830;2023-06-14T12:44:22;3.80;;;2.80;;
8247;SDS011;4164;49.844;8.830;2023-06-14T12:46:48;5.70;;;2.60;;
8247;SDS011;4164;49.844;8.830;2023-06-14T12:49:16;6.63;;;2.60;;
8247;SDS011;4164;49.844;8.830;2023-06-14T12:51:42;2.93;;;2.50;;
8247;SDS011;4164;49.844;8.830;2023-06-14T12:54:08;3.17;;;2.53;;
8247;SDS011;4164;49.844;8.830;2023-06-14T12:56:34;2.73;;;2.53;;
8247;SDS011;4164;49.844;8.830;2023-06-14T12:58:59;3.00;;;2.70;;
8247;SDS011;4164;49.844;8.830;2023-06-14T13:01:25;3.10;;;2.73;;
8247;SDS011;4164;49.844;8.830;2023-06-14T13:03:51;3.50;;;2.70;;
8247;SDS011;4164;49.844;8.830;2023-06-14T13:06:20;2.90;;;2.70;;
8247;SDS011;4164;49.844;8.830;2023-06-14T13:08:49;6.20;;;2.87;;
8247;SDS011;4164;49.844;8.830;2023-06-14T13:11:15;3.90;;;2.50;;
8247;SDS011;4164;49.844;8.830;2023-06-14T13:13:41;5.53;;;3.13;;
8247;SDS011;4164;49.844;8.830;2023-06-14T13:16:06;3.07;;;2.30;;
8247;SDS011;4164;49.844;8.830;2023-06-14T13:18:33;3.30;;;2.43;;
8247;SDS011;4164;49.844;8.830;2023-06-14T13:20:58;3.80;;;2.47;;
8247;SDS011;4164;49.844;8.830;2023-06-14T13:23:24;7.83;;;2.80;;
8247;SDS011;4164;49.844;8.830;2023-06-14T13:25:49;12.40;;;3.00;;
8247;SDS011;4164;49.844;8.830;2023-06-14T13:28:16;3.97;;;2.70;;
8247;SDS011;4164;49.844;8.830;2023-06-14T13:30:41;5.33;;;2.50;;
8247;SDS011;4164;49.844;8.830;2023-06-14T13:33:07;3.23;;;2.60;;
8247;SDS011;4164;49.844;8.830;2023-06-14T13:35:33;4.95;;;2.60;;
8247;SDS011;4164;49.844;8.830;2023-06-14T13:37:58;6.30;;;2.55;;
8247;SDS011;4164;49.844;8.830;2023-06-14T13:40:24;2.85;;;2.55;;
8247;SDS011;4164;49.844;8.830;2023-06-14T13:42:50;2.72;;;2.30;;
8247;SDS011;4164;49.844;8.830;2023-06-14T13:45:15;4.05;;;2.30;;
8247;SDS011;4164;49.844;8.830;2023-06-14T13:47:41;2.63;;;2.42;;
8247;SDS011;4164;49.844;8.830;2023-06-14T13:50:06;3.05;;;2.75;;
8247;SDS011;4164;49.844;8.830;2023-06-14T13:52:33;2.70;;;2.50;;
8247;SDS011;4164;49.844;8.830;2023-06-14T13:54:59;6.40;;;2.30;;
8247;SDS011;4164;49.844;8.830;2023-06-14T13:57:25;2.65;;;2.33;;
8247;SDS011;4164;49.844;8.830;2023-06-14T13:59:50;3.40;;;2.47;;
8247;SDS011;4164;49.844;8.830;2023-06-14T14:02:18;2.30;;;2.20;;
8247;SDS011;4164;49.844;8.830;2023-06-14T14:04:47;5.23;;;2.57;;
8247;SDS011;4164;49.844;8.830;2023-06-14T14:07:18;2.73;;;2.40;;
8247;SDS011;4164;49.844;8.830;2023-06-14T14:09:45;4.17;;;2.63;;
8247;SDS011;4164;49.844;8.830;2023-06-14T14:12:10;2.97;;;2.67;;
8247;SDS011;4164;49.844;8.830;2023-06-14T14:14:36;3.87;;;2.43;;
8247;SDS011;4164;49.844;8.830;2023-06-14T14:17:02;5.90;;;2.70;;
8247;SDS011;4164;49.844;8.830;2023-06-14T14:19:28;7.33;;;2.90;;
8247;SDS011;4164;49.844;8.830;2023-06-14T14:21:54;5.03;;;2.40;;
8247;SDS011;4164;49.844;8.830;2023-06-14T14:24:20;5.80;;;2.80;;
8247;SDS011;4164;49.844;8.830;2023-06-14T14:26:45;4.23;;;2.43;;
8247;SDS011;4164;49.844;8.830;2023-06-14T14:29:13;2.70;;;2.50;;
8247;SDS011;4164;49.844;8.830;2023-06-14T14:31:39;2.75;;;2.50;;
8247;SDS011;4164;49.844;8.830;2023-06-14T14:34:05;4.35;;;2.30;;
8247;SDS011;4164;49.844;8.830;2023-06-14T14:36:30;2.75;;;2.53;;
8247;SDS011;4164;49.844;8.830;2023-06-14T14:38:56;2.40;;;2.20;;
8247;SDS011;4164;49.844;8.830;2023-06-14T14:41:21;2.92;;;2.40;;
8247;SDS011;4164;49.844;8.830;2023-06-14T14:43:47;4.95;;;2.58;;
8247;SDS011;4164;49.844;8.830;2023-06-14T14:46:12;2.60;;;2.40;;
8247;SDS011;4164;49.844;8.830;2023-06-14T14:48:38;3.13;;;2.38;;
8247;SDS011;4164;49.844;8.830;2023-06-14T14:51:03;2.87;;;2.63;;
8247;SDS011;4164;49.844;8.830;2023-06-14T14:53:29;2.70;;;2.45;;
8247;SDS011;4164;49.844;8.830;2023-06-14T14:55:55;2.70;;;2.45;;
8247;SDS011;4164;49.844;8.830;2023-06-14T14:58:21;3.40;;;2.42;;
8247;SDS011;4164;49.844;8.830;2023-06-14T15:00:47;4.55;;;2.55;;
8247;SDS011;4164;49.844;8.830;2023-06-14T15:03:13;4.28;;;2.60;;
8247;SDS011;4164;49.844;8.830;2023-06-14T15:05:39;4.03;;;2.30;;
8247;SDS011;4164;49.844;8.830;2023-06-14T15:08:05;5.00;;;2.20;;
8247;SDS011;4164;49.844;8.830;2023-06-14T15:10:39;2.42;;;2.22;;
8247;SDS011;4164;49.844;8.830;2023-06-14T15:13:06;3.87;;;2.30;;
8247;SDS011;4164;49.844;8.830;2023-06-14T15:15:36;3.40;;;2.50;;
8247;SDS011;4164;49.844;8.830;2023-06-14T15:18:02;3.17;;;2.87;;
8247;SDS011;4164;49.844;8.830;2023-06-14T15:20:28;3.73;;;2.90;;
8247;SDS011;4164;49.844;8.830;2023-06-14T15:22:54;2.60;;;2.40;;
8247;SDS011;4164;49.844;8.830;2023-06-14T15:25:24;3.30;;;2.30;;
8247;SDS011;4164;49.844;8.830;2023-06-14T15:27:50;3.47;;;2.77;;